createdAt,value
2023-01-13T00:01:29.329Z,6.80
2023-01-13T00:03:57.623Z,6.90
2023-01-13T00:06:29.682Z,7.00
2023-01-13T00:08:58.110Z,6.70
2023-01-13T00:11:26.591Z,6.70
2023-01-13T00:13:54.852Z,6.40
2023-01-13T00:16:23.088Z,7.20
2023-01-13T00:18:53.662Z,6.50
2023-01-13T00:21:24.018Z,7.00
2023-01-13T00:23:54.148Z,6.70
2023-01-13T00:26:24.824Z,7.10
2023-01-13T00:28:58.206Z,7.00
2023-01-13T00:31:28.411Z,6.90
2023-01-13T00:33:57.566Z,7.30
2023-01-13T00:36:26.368Z,7.00
2023-01-13T00:38:54.795Z,7.30
2023-01-13T00:41:24.939Z,6.70
2023-01-13T00:43:53.006Z,7.00
2023-01-13T00:46:23.039Z,7.00
2023-01-13T00:48:51.824Z,7.00
2023-01-13T00:51:21.836Z,7.00
2023-01-13T00:53:51.993Z,7.10
2023-01-13T00:56:39.262Z,7.10
2023-01-13T00:59:11.903Z,6.70
2023-01-13T01:01:40.794Z,6.60
2023-01-13T01:04:09.013Z,6.90
2023-01-13T01:06:37.127Z,6.60
2023-01-13T01:09:05.846Z,7.10
2023-01-13T01:11:34.890Z,6.70
2023-01-13T01:14:04.127Z,7.10
2023-01-13T01:16:33.887Z,6.60
2023-01-13T01:19:02.655Z,6.30
2023-01-13T01:21:31.531Z,6.60
2023-01-13T01:24:04.539Z,6.90
2023-01-13T01:26:33.338Z,6.50
2023-01-13T01:29:02.588Z,6.50
2023-01-13T01:31:33.194Z,6.50
2023-01-13T01:34:02.104Z,6.70
2023-01-13T01:36:30.617Z,6.40
2023-01-13T01:38:59.740Z,6.70
2023-01-13T01:41:30.578Z,6.80
2023-01-13T01:44:00.616Z,6.50
2023-01-13T01:46:40.118Z,6.60
2023-01-13T01:49:14.447Z,6.80
2023-01-13T01:51:46.901Z,6.70
2023-01-13T01:54:20.766Z,6.60
2023-01-13T01:56:49.275Z,6.60
2023-01-13T01:59:18.188Z,7.00
2023-01-13T02:01:46.528Z,6.50
2023-01-13T02:04:19.710Z,6.50
2023-01-13T02:06:49.309Z,6.60
2023-01-13T02:09:17.796Z,6.80
2023-01-13T02:12:04.350Z,7.10
2023-01-13T02:14:35.404Z,7.30
2023-01-13T02:17:09.444Z,7.10
2023-01-13T02:20:03.495Z,7.60
2023-01-13T02:23:29.726Z,7.90
2023-01-13T02:26:03.527Z,8.00
2023-01-13T02:29:16.040Z,8.70
2023-01-13T02:31:48.920Z,8.90
2023-01-13T02:34:26.218Z,8.70
2023-01-13T02:37:00.927Z,8.50
2023-01-13T02:39:56.084Z,8.40
2023-01-13T02:42:49.091Z,8.70
2023-01-13T02:45:24.181Z,8.70
2023-01-13T02:47:56.057Z,9.00
2023-01-13T02:50:31.158Z,9.50
2023-01-13T02:53:05.496Z,9.50
2023-01-13T02:55:42.990Z,9.70
2023-01-13T02:58:15.839Z,9.80
2023-01-13T03:00:45.292Z,10.20
2023-01-13T03:03:13.897Z,10.80
2023-01-13T03:05:46.479Z,10.30
2023-01-13T03:08:17.969Z,10.70
2023-01-13T03:10:55.006Z,10.60
2023-01-13T03:13:37.121Z,10.80
2023-01-13T03:16:24.080Z,10.60
2023-01-13T03:19:29.565Z,9.80
2023-01-13T03:22:07.533Z,10.00
2023-01-13T03:24:42.657Z,9.80
2023-01-13T03:27:19.735Z,10.00
2023-01-13T03:30:15.876Z,10.00
2023-01-13T03:32:48.744Z,9.50
2023-01-13T03:35:26.543Z,9.40
2023-01-13T03:38:09.652Z,9.40
2023-01-13T03:40:46.676Z,8.50
2023-01-13T03:43:38.224Z,8.50
2023-01-13T03:46:18.438Z,8.60
2023-01-13T03:48:49.828Z,7.90
2023-01-13T03:51:22.543Z,7.50
2023-01-13T03:53:57.511Z,7.80
2023-01-13T03:56:34.287Z,7.30
2023-01-13T03:59:05.218Z,7.10
2023-01-13T04:01:48.955Z,7.00
2023-01-13T04:04:23.421Z,7.20
2023-01-13T04:07:01.343Z,6.50
2023-01-13T04:09:47.728Z,6.60
2023-01-13T04:12:52.158Z,6.70
2023-01-13T04:15:23.000Z,7.20
2023-01-13T04:17:52.062Z,8.00
2023-01-13T04:20:20.892Z,7.00
2023-01-13T04:22:48.920Z,6.20
2023-01-13T04:25:16.855Z,6.10
2023-01-13T04:27:45.059Z,6.20
2023-01-13T04:30:13.161Z,5.60
2023-01-13T04:32:41.523Z,5.50
2023-01-13T04:35:09.548Z,5.70
2023-01-13T04:37:37.850Z,6.00
2023-01-13T04:40:06.801Z,6.00
2023-01-13T04:42:34.771Z,5.90
2023-01-13T04:45:02.774Z,5.70
2023-01-13T04:47:30.732Z,6.00
2023-01-13T04:49:58.644Z,5.90
2023-01-13T04:52:26.590Z,6.00
2023-01-13T04:54:54.572Z,6.30
2023-01-13T04:57:22.505Z,6.40
2023-01-13T04:59:50.486Z,6.60
2023-01-13T05:02:21.453Z,6.90
2023-01-13T05:04:49.688Z,6.80
2023-01-13T05:07:18.489Z,7.90
2023-01-13T05:09:46.413Z,7.90
2023-01-13T05:12:32.985Z,8.30
2023-01-13T05:15:19.283Z,8.00
2023-01-13T05:17:48.015Z,8.20
2023-01-13T05:20:16.204Z,7.80
2023-01-13T05:23:03.326Z,8.20
2023-01-13T05:25:31.657Z,11.60
2023-01-13T05:28:00.126Z,12.20
2023-01-13T05:30:31.340Z,15.60
2023-01-13T05:32:59.439Z,12.60
2023-01-13T05:35:29.315Z,8.60
2023-01-13T05:37:57.336Z,7.70
2023-01-13T05:40:43.492Z,8.10
2023-01-13T05:43:25.977Z,7.80
2023-01-13T05:45:54.345Z,7.80
2023-01-13T05:48:25.420Z,7.40
2023-01-13T05:50:54.155Z,7.40
2023-01-13T05:53:22.997Z,8.50
2023-01-13T05:55:51.729Z,8.80
2023-01-13T05:58:21.694Z,8.80
2023-01-13T06:00:49.867Z,7.60
2023-01-13T06:03:21.393Z,7.60
2023-01-13T06:05:51.075Z,7.50
2023-01-13T06:08:19.228Z,7.20
2023-01-13T06:10:47.219Z,6.80
2023-01-13T06:13:15.188Z,6.70
2023-01-13T06:15:43.180Z,6.00
2023-01-13T06:18:11.610Z,6.20
2023-01-13T06:20:39.567Z,5.90
2023-01-13T06:23:10.147Z,6.20
2023-01-13T06:26:30.876Z,6.40
2023-01-13T06:28:58.944Z,5.60
2023-01-13T06:31:28.782Z,5.50
2023-01-13T06:34:02.740Z,5.40
2023-01-13T06:36:35.877Z,5.20
2023-01-13T06:39:04.975Z,5.10
2023-01-13T06:41:52.344Z,5.10
2023-01-13T06:44:21.240Z,4.90
2023-01-13T06:46:49.383Z,4.70
2023-01-13T06:49:17.495Z,4.80
2023-01-13T06:51:46.632Z,5.30
2023-01-13T06:54:14.659Z,5.10
2023-01-13T06:56:42.624Z,5.20
2023-01-13T06:59:10.558Z,5.20
2023-01-13T07:01:39.041Z,5.10
2023-01-13T07:04:07.055Z,5.00
2023-01-13T07:06:35.054Z,4.80
2023-01-13T07:09:03.102Z,4.50
2023-01-13T07:11:31.642Z,5.10
2023-01-13T07:14:20.029Z,5.10
2023-01-13T07:16:48.153Z,4.90
2023-01-13T07:19:23.234Z,5.20
2023-01-13T07:21:52.433Z,4.90
2023-01-13T07:24:20.878Z,5.30
2023-01-13T07:26:50.594Z,5.30
2023-01-13T07:29:18.718Z,5.10
2023-01-13T07:31:49.691Z,5.00
2023-01-13T07:34:18.004Z,4.80
2023-01-13T07:36:46.085Z,4.70
2023-01-13T07:39:14.047Z,5.00
2023-01-13T07:42:00.439Z,4.80
2023-01-13T07:44:28.511Z,5.00
2023-01-13T07:46:56.950Z,5.00
2023-01-13T07:49:25.022Z,5.00
2023-01-13T07:51:52.953Z,5.20
2023-01-13T07:54:25.463Z,5.00
2023-01-13T07:56:59.717Z,4.90
2023-01-13T07:59:27.750Z,5.00
2023-01-13T08:01:55.850Z,5.10
2023-01-13T08:04:24.016Z,5.90
2023-01-13T08:06:52.043Z,5.80
2023-01-13T08:09:20.001Z,7.20
2023-01-13T08:12:07.928Z,6.70
2023-01-13T08:14:35.932Z,6.30
2023-01-13T08:17:04.019Z,6.00
2023-01-13T08:19:31.975Z,5.90
2023-01-13T08:22:00.099Z,6.00
2023-01-13T08:24:28.245Z,6.10
2023-01-13T08:26:56.251Z,6.70
2023-01-13T08:29:24.323Z,6.40
2023-01-13T08:31:52.361Z,6.20
2023-01-13T08:34:20.404Z,6.00
2023-01-13T08:36:50.105Z,6.40
2023-01-13T08:39:18.850Z,6.00
2023-01-13T08:41:55.565Z,6.70
2023-01-13T08:44:27.770Z,6.50
2023-01-13T08:46:56.551Z,6.20
2023-01-13T08:49:25.355Z,6.00
2023-01-13T08:51:53.869Z,5.60
2023-01-13T08:54:21.876Z,5.80
2023-01-13T08:56:49.929Z,5.60
2023-01-13T08:59:20.680Z,5.70
2023-01-13T09:01:48.824Z,5.70
2023-01-13T09:04:23.241Z,5.70
2023-01-13T09:06:52.389Z,5.60
2023-01-13T09:09:21.471Z,5.40
2023-01-13T09:12:10.028Z,5.70
2023-01-13T09:14:40.028Z,5.70
2023-01-13T09:17:08.259Z,5.60
2023-01-13T09:19:36.803Z,6.40
2023-01-13T09:22:05.095Z,5.90
2023-01-13T09:24:33.101Z,6.60
2023-01-13T09:27:01.252Z,6.40
2023-01-13T09:29:29.240Z,6.50
2023-01-13T09:31:58.258Z,6.40
2023-01-13T09:34:44.831Z,6.20
2023-01-13T09:37:12.780Z,6.50
2023-01-13T09:39:40.968Z,6.10
2023-01-13T09:42:45.672Z,6.20
2023-01-13T09:45:20.221Z,5.90
2023-01-13T09:48:19.540Z,6.00
2023-01-13T09:51:03.376Z,6.00
2023-01-13T09:53:38.880Z,5.70
2023-01-13T09:56:10.560Z,5.00
2023-01-13T09:58:38.802Z,5.10
2023-01-13T10:01:32.941Z,5.50
2023-01-13T10:04:19.658Z,5.40
2023-01-13T10:06:56.397Z,5.50
2023-01-13T10:09:30.692Z,5.40
2023-01-13T10:12:20.078Z,5.30
2023-01-13T10:14:57.417Z,5.10
2023-01-13T10:17:43.933Z,5.30
2023-01-13T10:20:16.393Z,5.40
2023-01-13T10:22:44.477Z,5.00
2023-01-13T10:25:12.386Z,5.10
2023-01-13T10:27:41.085Z,5.80
2023-01-13T10:30:21.384Z,5.80
2023-01-13T10:32:58.279Z,5.70
2023-01-13T10:35:54.168Z,5.60
2023-01-13T10:38:22.301Z,5.50
2023-01-13T10:40:56.538Z,5.50
2023-01-13T10:43:25.713Z,5.30
2023-01-13T10:45:56.831Z,5.60
2023-01-13T10:48:35.150Z,5.70
2023-01-13T10:51:18.829Z,5.30
2023-01-13T10:53:57.475Z,5.50
2023-01-13T10:56:28.801Z,5.20
2023-01-13T10:59:14.354Z,5.10
2023-01-13T11:02:27.421Z,5.20
2023-01-13T11:04:55.482Z,5.40
2023-01-13T11:07:40.093Z,4.80
2023-01-13T11:10:17.238Z,4.70
2023-01-13T11:13:15.568Z,5.00
2023-01-13T11:16:00.656Z,4.80
2023-01-13T11:18:37.893Z,4.50
2023-01-13T11:21:21.515Z,4.30
2023-01-13T11:24:02.417Z,4.60
2023-01-13T11:26:43.480Z,4.20
2023-01-13T11:29:30.143Z,4.20
2023-01-13T11:32:10.827Z,4.70
2023-01-13T11:34:45.206Z,4.80
2023-01-13T11:37:30.623Z,5.20
2023-01-13T11:40:07.859Z,4.90
2023-01-13T11:42:43.542Z,5.20
2023-01-13T11:45:24.526Z,4.90
2023-01-13T11:47:58.363Z,4.80
2023-01-13T11:50:42.765Z,5.20
2023-01-13T11:53:28.818Z,4.90
2023-01-13T11:56:47.310Z,5.00
2023-01-13T11:59:33.558Z,5.30
2023-01-13T12:02:57.173Z,5.30
2023-01-13T12:05:28.241Z,5.10
2023-01-13T12:08:26.219Z,5.10
2023-01-13T12:12:02.209Z,5.10
2023-01-13T12:14:39.064Z,5.10
2023-01-13T12:17:22.058Z,5.20
2023-01-13T12:19:51.361Z,5.30
2023-01-13T12:22:30.088Z,5.10
2023-01-13T12:25:14.043Z,5.60
2023-01-13T12:27:49.342Z,5.80
2023-01-13T12:30:47.877Z,5.40
2023-01-13T12:33:43.067Z,5.40
2023-01-13T12:36:35.608Z,5.40
2023-01-13T12:39:13.685Z,5.40
2023-01-13T12:42:08.448Z,5.20
2023-01-13T12:44:36.579Z,5.50
2023-01-13T12:47:04.644Z,5.00
2023-01-13T12:49:35.343Z,5.20
2023-01-13T12:52:13.849Z,5.30
2023-01-13T12:54:42.542Z,5.20
2023-01-13T12:57:16.517Z,5.70
2023-01-13T12:59:49.193Z,5.20
2023-01-13T13:02:27.693Z,5.40
2023-01-13T13:05:21.320Z,5.60
2023-01-13T13:08:00.913Z,5.10
2023-01-13T13:10:33.918Z,5.10
2023-01-13T13:13:18.941Z,5.10
2023-01-13T13:15:49.467Z,5.30
2023-01-13T13:18:17.491Z,5.70
2023-01-13T13:21:01.156Z,5.30
2023-01-13T13:23:35.557Z,5.40
2023-01-13T13:26:17.599Z,5.80
2023-01-13T13:29:19.482Z,6.10
2023-01-13T13:32:02.508Z,6.80
2023-01-13T13:34:38.958Z,7.00
2023-01-13T13:37:28.888Z,6.80
2023-01-13T13:40:16.235Z,6.60
2023-01-13T13:43:07.633Z,7.40
2023-01-13T13:45:54.651Z,7.60
2023-01-13T13:48:34.403Z,8.00
2023-01-13T13:51:14.654Z,7.90
2023-01-13T13:53:42.788Z,8.50
2023-01-13T13:56:20.923Z,9.50
2023-01-13T13:58:50.576Z,9.40
2023-01-13T14:01:37.281Z,8.60
2023-01-13T14:04:26.245Z,7.40
2023-01-13T14:06:58.582Z,7.50
2023-01-13T14:09:38.641Z,7.70
2023-01-13T14:12:17.132Z,7.50
2023-01-13T14:14:47.428Z,8.20
2023-01-13T14:17:26.039Z,8.20
2023-01-13T14:20:05.499Z,8.90
2023-01-13T14:22:33.696Z,9.70
2023-01-13T14:25:02.172Z,11.60
2023-01-13T14:27:31.042Z,11.20
2023-01-13T14:30:00.936Z,9.80
2023-01-13T14:32:37.645Z,9.20
2023-01-13T14:35:07.388Z,8.80
2023-01-13T14:37:39.532Z,8.60
2023-01-13T14:40:33.667Z,8.50
2023-01-13T14:43:12.325Z,9.60
2023-01-13T14:45:55.096Z,9.40
2023-01-13T14:48:32.455Z,10.30
2023-01-13T14:51:02.750Z,12.60
2023-01-13T14:53:40.736Z,14.70
2023-01-13T14:56:36.941Z,14.00
2023-01-13T14:59:35.932Z,13.40
2023-01-13T15:02:34.693Z,11.50
2023-01-13T15:05:24.412Z,11.50
2023-01-13T15:08:11.480Z,10.40
2023-01-13T15:11:06.775Z,10.30
2023-01-13T15:13:37.667Z,9.90
2023-01-13T15:16:13.560Z,10.20
2023-01-13T15:18:41.684Z,9.70
2023-01-13T15:21:10.631Z,9.60
2023-01-13T15:23:41.007Z,10.10
2023-01-13T15:26:30.093Z,9.60
2023-01-13T15:28:59.152Z,10.40
2023-01-13T15:31:28.515Z,10.80
2023-01-13T15:33:57.179Z,10.80
2023-01-13T15:36:29.103Z,10.50
2023-01-13T15:38:58.712Z,9.90
2023-01-13T15:41:45.498Z,9.50
2023-01-13T15:44:34.283Z,9.80
2023-01-13T15:47:05.419Z,10.10
2023-01-13T15:49:42.441Z,9.90
2023-01-13T15:52:25.116Z,9.20
2023-01-13T15:54:54.072Z,9.60
2023-01-13T15:57:27.525Z,10.30
2023-01-13T15:59:58.203Z,11.00
2023-01-13T16:02:26.828Z,10.60
2023-01-13T16:04:54.984Z,10.50
2023-01-13T16:07:25.257Z,10.40
2023-01-13T16:09:53.433Z,11.10
2023-01-13T16:12:22.028Z,11.50
2023-01-13T16:14:50.016Z,11.70
2023-01-13T16:17:21.018Z,11.50
2023-01-13T16:19:49.146Z,10.80
2023-01-13T16:22:18.390Z,12.20
2023-01-13T16:24:47.022Z,12.30
2023-01-13T16:27:23.585Z,13.10
2023-01-13T16:29:53.247Z,12.10
2023-01-13T16:32:21.427Z,11.60
2023-01-13T16:34:49.804Z,12.10
2023-01-13T16:37:21.298Z,11.50
2023-01-13T16:39:49.660Z,9.40
2023-01-13T16:42:17.717Z,8.70
2023-01-13T16:44:48.185Z,8.20
2023-01-13T16:47:17.742Z,8.60
2023-01-13T16:49:46.703Z,8.80
2023-01-13T16:52:14.832Z,8.50
2023-01-13T16:54:42.897Z,7.50
2023-01-13T16:57:14.334Z,7.80
2023-01-13T16:59:42.512Z,7.70
2023-01-13T17:02:19.721Z,6.80
2023-01-13T17:04:49.104Z,6.50
2023-01-13T17:07:18.094Z,6.10
2023-01-13T17:09:46.158Z,5.70
2023-01-13T17:12:14.245Z,5.20
2023-01-13T17:14:43.643Z,5.00
2023-01-13T17:17:30.239Z,4.90
2023-01-13T17:19:58.184Z,4.90
2023-01-13T17:22:26.186Z,4.40
2023-01-13T17:24:54.358Z,4.60
2023-01-13T17:27:23.446Z,4.90
2023-01-13T17:29:51.537Z,4.60
2023-01-13T17:32:21.202Z,4.40
2023-01-13T17:34:50.110Z,4.60
2023-01-13T17:37:18.293Z,4.70
2023-01-13T17:39:48.657Z,4.20
2023-01-13T17:42:17.283Z,4.00
2023-01-13T17:44:46.915Z,4.20
2023-01-13T17:47:15.381Z,4.30
2023-01-13T17:49:43.553Z,4.70
2023-01-13T17:52:12.041Z,4.20
2023-01-13T17:54:43.153Z,4.10
2023-01-13T17:57:11.346Z,4.30
2023-01-13T17:59:41.573Z,4.00
2023-01-13T18:02:12.045Z,4.10
2023-01-13T18:04:40.675Z,4.00
2023-01-13T18:07:08.816Z,4.30
2023-01-13T18:09:36.808Z,4.00
2023-01-13T18:12:05.036Z,4.00
2023-01-13T18:14:33.083Z,4.00
2023-01-13T18:17:01.193Z,3.80
2023-01-13T18:19:48.012Z,3.90
2023-01-13T18:22:45.195Z,3.90
2023-01-13T18:25:31.711Z,3.70
2023-01-13T18:28:02.683Z,3.90
2023-01-13T18:30:30.848Z,4.00
2023-01-13T18:32:58.984Z,4.10
2023-01-13T18:35:27.038Z,4.40
2023-01-13T18:37:54.996Z,4.30
2023-01-13T18:40:23.096Z,4.50
2023-01-13T18:42:59.262Z,4.10
2023-01-13T18:45:30.090Z,3.90
2023-01-13T18:48:01.479Z,4.30
2023-01-13T18:50:30.214Z,4.50
2023-01-13T18:52:58.747Z,4.50
2023-01-13T18:55:28.830Z,4.60
2023-01-13T18:57:57.604Z,4.60
2023-01-13T19:00:27.328Z,4.90
2023-01-13T19:05:35.864Z,5.40
2023-01-13T19:08:05.326Z,5.30
2023-01-13T19:10:33.385Z,4.80
2023-01-13T19:13:01.933Z,5.20
2023-01-13T19:15:30.444Z,5.10
2023-01-13T19:17:58.968Z,4.80
2023-01-13T19:20:26.994Z,4.80
2023-01-13T19:22:55.207Z,4.60
2023-01-13T19:25:23.273Z,5.20
2023-01-13T19:27:51.360Z,5.40
2023-01-13T19:30:19.470Z,4.90
2023-01-13T19:32:47.551Z,5.10
2023-01-13T19:35:18.200Z,5.30
2023-01-13T19:37:46.270Z,4.90
2023-01-13T19:40:14.421Z,5.70
2023-01-13T19:43:04.777Z,4.90
2023-01-13T19:45:35.413Z,5.20
2023-01-13T19:48:05.690Z,4.90
2023-01-13T19:50:39.114Z,5.20
2023-01-13T19:53:07.837Z,5.10
2023-01-13T19:55:35.883Z,5.30
2023-01-13T19:58:04.151Z,5.10
2023-01-13T20:00:32.224Z,5.20
2023-01-13T20:03:03.714Z,4.90
2023-01-13T20:05:31.771Z,4.90
2023-01-13T20:07:59.804Z,4.90
2023-01-13T20:10:30.392Z,5.20
2023-01-13T20:12:58.844Z,4.90
2023-01-13T20:15:26.909Z,4.50
2023-01-13T20:17:55.888Z,4.60
2023-01-13T20:20:26.911Z,5.10
2023-01-13T20:22:54.870Z,5.20
2023-01-13T20:25:23.324Z,5.10
2023-01-13T20:27:51.327Z,4.80
2023-01-13T20:30:19.294Z,5.00
2023-01-13T20:32:47.394Z,4.60
2023-01-13T20:35:15.634Z,4.70
2023-01-13T20:37:44.230Z,4.80
2023-01-13T20:40:15.770Z,4.60
2023-01-13T20:42:46.244Z,4.40
2023-01-13T20:45:18.164Z,4.70
2023-01-13T20:47:46.763Z,4.50
2023-01-13T20:50:16.259Z,4.60
2023-01-13T20:52:44.752Z,4.60
2023-01-13T20:55:13.334Z,4.50
2023-01-13T20:57:43.019Z,4.50
2023-01-13T21:00:11.483Z,4.70
2023-01-13T21:02:40.964Z,4.10
2023-01-13T21:05:09.982Z,4.30
2023-01-13T21:07:38.084Z,4.20
2023-01-13T21:10:06.738Z,4.80
2023-01-13T21:12:53.255Z,5.10
2023-01-13T21:15:22.216Z,5.00
2023-01-13T21:18:10.314Z,4.80
2023-01-13T21:20:39.594Z,4.70
2023-01-13T21:23:10.765Z,4.70
2023-01-13T21:25:40.323Z,4.20
2023-01-13T21:28:11.766Z,4.70
2023-01-13T21:30:40.214Z,4.40
2023-01-13T21:33:13.559Z,4.30
2023-01-13T21:35:41.629Z,4.30
2023-01-13T21:38:11.143Z,4.20
2023-01-13T21:40:39.114Z,4.30
2023-01-13T21:43:30.559Z,4.20
2023-01-13T21:46:17.031Z,4.40
2023-01-13T21:48:45.100Z,4.30
2023-01-13T21:51:13.128Z,3.60
2023-01-13T21:53:41.127Z,3.70
2023-01-13T21:56:09.200Z,3.90
2023-01-13T21:58:38.906Z,3.60
2023-01-13T22:01:07.011Z,3.80
2023-01-13T22:03:53.994Z,3.80
2023-01-13T22:06:23.394Z,3.70
2023-01-13T22:08:51.804Z,4.00
2023-01-13T22:11:20.153Z,4.00
2023-01-13T22:14:06.957Z,4.20
2023-01-13T22:16:41.680Z,3.90
2023-01-13T22:19:10.474Z,4.10
2023-01-13T22:21:39.023Z,4.00
2023-01-13T22:24:07.155Z,4.20
2023-01-13T22:26:35.086Z,4.30
2023-01-13T22:29:03.163Z,4.30
2023-01-13T22:31:31.830Z,4.10
2023-01-13T22:33:59.840Z,4.30
2023-01-13T22:36:28.003Z,4.10
2023-01-13T22:38:57.082Z,4.20
2023-01-13T22:41:25.132Z,4.40
2023-01-13T22:43:53.078Z,4.40
2023-01-13T22:46:22.420Z,4.00
2023-01-13T22:48:53.853Z,3.90
2023-01-13T22:51:22.976Z,4.50
2023-01-13T22:53:51.445Z,4.30
2023-01-13T22:56:21.872Z,4.60
2023-01-13T22:59:00.636Z,4.70
2023-01-13T23:01:31.433Z,4.40
2023-01-13T23:04:01.267Z,4.00
2023-01-13T23:06:31.347Z,4.50
2023-01-13T23:08:59.567Z,4.30
2023-01-13T23:11:29.615Z,4.10
2023-01-13T23:14:00.287Z,4.20
2023-01-13T23:16:29.940Z,4.20
2023-01-13T23:18:58.364Z,4.50
2023-01-13T23:21:29.709Z,4.50
2023-01-13T23:23:58.924Z,4.30
2023-01-13T23:26:28.272Z,4.30
2023-01-13T23:29:01.089Z,4.30
2023-01-13T23:31:29.560Z,4.20
2023-01-13T23:33:58.382Z,4.80
2023-01-13T23:36:28.587Z,4.60
2023-01-13T23:38:59.342Z,4.60
2023-01-13T23:41:28.182Z,4.40
2023-01-13T23:44:00.979Z,4.50
2023-01-13T23:46:31.097Z,4.60
2023-01-13T23:48:59.091Z,4.70
2023-01-13T23:51:29.986Z,4.70
2023-01-13T23:53:59.306Z,4.40
2023-01-13T23:56:30.556Z,4.20
2023-01-13T23:58:59.338Z,4.20
